createdAt,value
2022-12-13T00:00:33.581Z,100559.88
2022-12-13T00:03:01.116Z,100559.06
2022-12-13T00:05:28.751Z,100556.44
2022-12-13T00:07:57.671Z,100557.34
2022-12-13T00:10:25.147Z,100564.16
2022-12-13T00:12:52.596Z,100558.16
2022-12-13T00:15:20.531Z,100564.97
2022-12-13T00:17:48.052Z,100557.22
2022-12-13T00:20:15.554Z,100559.63
2022-12-13T00:22:43.188Z,100557.13
2022-12-13T00:25:12.254Z,100559.66
2022-12-13T00:27:39.897Z,100557.03
2022-12-13T00:30:08.418Z,100550.94
2022-12-13T00:32:35.918Z,100550.94
2022-12-13T00:35:03.468Z,100551.81
2022-12-13T00:37:31.095Z,100553.63
2022-12-13T00:39:58.617Z,100537.31
2022-12-13T00:42:27.480Z,100543.41
2022-12-13T00:44:55.902Z,100539.91
2022-12-13T00:47:24.400Z,100542.56
2022-12-13T00:49:51.859Z,100537.44
2022-12-13T00:52:19.358Z,100545.13
2022-12-13T00:54:47.011Z,100531.44
2022-12-13T00:57:14.520Z,100528.03
2022-12-13T00:59:43.380Z,100529.75
2022-12-13T01:02:11.055Z,100522.00
2022-12-13T01:04:38.558Z,100522.06
2022-12-13T01:07:06.050Z,100526.38
2022-12-13T01:09:33.738Z,100530.69
2022-12-13T01:12:03.216Z,100529.81
2022-12-13T01:14:30.750Z,100525.56
2022-12-13T01:16:59.664Z,100522.13
2022-12-13T01:19:27.951Z,100526.44
2022-12-13T01:21:55.980Z,100532.34
2022-12-13T01:24:24.799Z,100538.31
2022-12-13T01:26:52.383Z,100535.75
2022-12-13T01:29:26.037Z,100523.81
2022-12-13T01:31:54.348Z,100517.00
2022-12-13T01:34:26.336Z,100519.72
2022-12-13T01:36:54.545Z,100526.59
2022-12-13T01:39:26.787Z,100517.19
2022-12-13T01:41:59.234Z,100515.47
2022-12-13T01:44:41.591Z,100518.88
2022-12-13T01:47:09.095Z,100516.38
2022-12-13T01:49:38.215Z,100524.13
2022-12-13T01:52:07.803Z,100531.75
2022-12-13T01:54:35.727Z,100527.47
2022-12-13T01:57:03.496Z,100524.00
2022-12-13T01:59:31.014Z,100525.69
2022-12-13T02:02:00.653Z,100521.50
2022-12-13T02:04:31.868Z,100514.66
2022-12-13T02:07:01.397Z,100516.44
2022-12-13T02:09:29.369Z,100508.69
2022-12-13T02:11:56.907Z,100510.44
2022-12-13T02:14:24.449Z,100507.00
2022-12-13T02:16:53.134Z,100506.19
2022-12-13T02:19:50.749Z,100508.75
2022-12-13T02:22:34.317Z,100518.16
2022-12-13T02:25:14.252Z,100518.97
2022-12-13T02:27:52.654Z,100505.25
2022-12-13T02:30:31.044Z,100504.44
2022-12-13T02:33:09.051Z,100498.44
2022-12-13T02:35:38.905Z,100501.88
2022-12-13T02:38:11.512Z,100504.47
2022-12-13T02:40:42.965Z,100496.75
2022-12-13T02:43:15.595Z,100503.63
2022-12-13T02:45:52.633Z,100504.47
2022-12-13T02:48:22.856Z,100512.13
2022-12-13T02:50:51.236Z,100519.84
2022-12-13T02:53:19.085Z,100513.88
2022-12-13T02:55:46.758Z,100508.75
2022-12-13T02:58:15.195Z,100515.66
2022-12-13T03:00:54.704Z,100501.03
2022-12-13T03:03:29.406Z,100495.03
2022-12-13T03:06:23.078Z,100490.75
2022-12-13T03:08:53.308Z,100484.78
2022-12-13T03:11:20.779Z,100492.53
2022-12-13T03:13:48.831Z,100486.47
2022-12-13T03:16:24.732Z,100495.03
2022-12-13T03:18:53.472Z,100503.59
2022-12-13T03:21:21.233Z,100495.88
2022-12-13T03:23:48.953Z,100501.88
2022-12-13T03:26:18.647Z,100502.69
2022-12-13T03:28:46.367Z,100489.88
2022-12-13T03:31:14.091Z,100495.88
2022-12-13T03:33:43.260Z,100496.75
2022-12-13T03:36:11.412Z,100500.19
2022-12-13T03:38:40.035Z,100488.19
2022-12-13T03:41:08.892Z,100483.91
2022-12-13T03:43:36.401Z,100492.50
2022-12-13T03:46:03.913Z,100501.91
2022-12-13T03:48:31.488Z,100502.69
2022-12-13T03:51:00.288Z,100503.53
2022-12-13T03:53:33.718Z,100511.25
2022-12-13T03:56:02.673Z,100513.78
2022-12-13T03:58:35.080Z,100514.66
2022-12-13T04:01:06.454Z,100518.09
2022-12-13T04:03:35.015Z,100518.09
2022-12-13T04:06:04.560Z,100512.06
2022-12-13T04:08:32.352Z,100508.59
2022-12-13T04:11:00.126Z,100506.00
2022-12-13T04:13:32.740Z,100503.41
2022-12-13T04:16:01.180Z,100506.00
2022-12-13T04:18:28.952Z,100491.41
2022-12-13T04:20:57.438Z,100496.56
2022-12-13T04:23:26.640Z,100492.28
2022-12-13T04:25:54.302Z,100498.28
2022-12-13T04:28:23.102Z,100500.84
2022-12-13T04:30:52.918Z,100491.44
2022-12-13T04:33:22.004Z,100491.41
2022-12-13T04:35:49.723Z,100488.84
2022-12-13T04:38:17.296Z,100481.19
2022-12-13T04:40:46.123Z,100487.22
2022-12-13T04:43:13.619Z,100488.84
2022-12-13T04:45:41.502Z,100478.56
2022-12-13T04:48:09.652Z,100481.19
2022-12-13T04:50:37.973Z,100477.78
2022-12-13T04:53:05.725Z,100487.97
2022-12-13T04:55:33.367Z,100491.41
2022-12-13T04:58:02.388Z,100481.94
2022-12-13T05:00:30.033Z,100485.28
2022-12-13T05:02:57.710Z,100478.47
2022-12-13T05:05:25.400Z,100485.34
2022-12-13T05:07:53.125Z,100479.38
2022-12-13T05:10:34.227Z,100476.78
2022-12-13T05:13:05.391Z,100478.53
2022-12-13T05:15:33.511Z,100474.22
2022-12-13T05:18:10.238Z,100477.59
2022-12-13T05:20:39.055Z,100474.19
2022-12-13T05:23:06.737Z,100463.91
2022-12-13T05:25:35.152Z,100463.16
2022-12-13T05:28:27.127Z,100461.47
2022-12-13T05:30:52.141Z,100454.63
2022-12-13T05:33:20.037Z,100460.63
2022-12-13T05:35:47.736Z,100458.91
2022-12-13T05:38:15.523Z,100464.91
2022-12-13T05:40:43.512Z,100475.22
2022-12-13T05:43:22.099Z,100453.00
2022-12-13T05:45:51.903Z,100474.44
2022-12-13T05:48:24.394Z,100467.53
2022-12-13T05:51:10.973Z,100477.84
2022-12-13T05:53:40.597Z,100459.03
2022-12-13T05:56:08.921Z,100463.34
2022-12-13T05:58:38.054Z,100467.66
2022-12-13T06:01:08.447Z,100468.50
2022-12-13T06:03:36.604Z,100465.94
2022-12-13T06:06:05.070Z,100463.38
2022-12-13T06:08:32.995Z,100471.94
2022-12-13T06:11:10.634Z,100458.25
2022-12-13T06:13:42.635Z,100465.97
2022-12-13T06:16:23.025Z,100462.53
2022-12-13T06:18:54.473Z,100460.00
2022-12-13T06:21:27.222Z,100459.13
2022-12-13T06:23:55.656Z,100458.31
2022-12-13T06:26:23.316Z,100455.72
2022-12-13T06:28:50.994Z,100456.56
2022-12-13T06:31:20.131Z,100454.00
2022-12-13T06:33:47.828Z,100462.53
2022-12-13T06:36:15.487Z,100464.25
2022-12-13T06:38:43.822Z,100459.94
2022-12-13T06:41:13.687Z,100472.00
2022-12-13T06:43:42.804Z,100466.84
2022-12-13T06:46:10.736Z,100460.84
2022-12-13T06:48:41.075Z,100468.56
2022-12-13T06:51:09.774Z,100459.16
2022-12-13T06:53:38.539Z,100459.97
2022-12-13T06:56:07.912Z,100453.13
2022-12-13T06:58:36.138Z,100448.84
2022-12-13T07:01:04.627Z,100439.41
2022-12-13T07:03:32.929Z,100451.44
2022-12-13T07:06:05.822Z,100462.56
2022-12-13T07:08:33.673Z,100471.16
2022-12-13T07:11:01.452Z,100481.44
2022-12-13T07:13:29.172Z,100481.44
2022-12-13T07:16:01.183Z,100478.03
2022-12-13T07:18:29.015Z,100486.59
2022-12-13T07:20:56.531Z,100488.31
2022-12-13T07:23:25.431Z,100493.47
2022-12-13T07:25:54.324Z,100482.31
2022-12-13T07:28:22.939Z,100485.75
2022-12-13T07:30:50.595Z,100490.03
2022-12-13T07:33:22.229Z,100486.59
2022-12-13T07:35:55.446Z,100484.88
2022-12-13T07:38:24.733Z,100484.88
2022-12-13T07:40:52.519Z,100484.88
2022-12-13T07:43:20.509Z,100483.16
2022-12-13T07:45:48.343Z,100479.72
2022-12-13T07:48:16.055Z,100481.44
2022-12-13T07:50:44.047Z,100477.16
2022-12-13T07:53:11.780Z,100474.56
2022-12-13T07:55:40.840Z,100475.44
2022-12-13T07:58:11.403Z,100467.72
2022-12-13T08:00:39.557Z,100478.88
2022-12-13T08:03:07.576Z,100475.44
2022-12-13T08:05:38.348Z,100486.59
2022-12-13T08:08:08.290Z,100484.03
2022-12-13T08:10:36.538Z,100484.00
2022-12-13T08:13:06.100Z,100483.16
2022-12-13T08:15:33.959Z,100480.59
2022-12-13T08:18:01.873Z,100474.56
2022-12-13T08:20:29.575Z,100488.31
2022-12-13T08:23:02.080Z,100490.91
2022-12-13T08:25:30.715Z,100493.47
2022-12-13T08:28:01.600Z,100496.91
2022-12-13T08:30:32.392Z,100494.34
2022-12-13T08:33:05.291Z,100493.47
2022-12-13T08:35:34.468Z,100496.94
2022-12-13T08:38:02.687Z,100505.50
2022-12-13T08:40:30.322Z,100507.22
2022-12-13T08:42:57.976Z,100512.31
2022-12-13T08:45:26.983Z,100512.31
2022-12-13T08:47:58.508Z,100509.75
2022-12-13T08:50:26.444Z,100518.31
2022-12-13T08:52:54.131Z,100515.72
2022-12-13T08:55:31.422Z,100519.16
2022-12-13T08:58:01.174Z,100525.94
2022-12-13T09:00:29.254Z,100526.75
2022-12-13T09:03:06.231Z,100532.72
2022-12-13T09:05:38.029Z,100537.03
2022-12-13T09:08:23.322Z,100536.13
2022-12-13T09:10:59.947Z,100540.38
2022-12-13T09:13:32.539Z,100542.84
2022-12-13T09:16:04.535Z,100538.47
2022-12-13T09:18:36.651Z,100542.69
2022-12-13T09:21:10.862Z,100547.69
2022-12-13T09:23:45.637Z,100549.28
2022-12-13T09:26:16.053Z,100546.59
2022-12-13T09:28:43.899Z,100555.06
2022-12-13T09:31:13.522Z,100547.28
2022-12-13T09:33:43.012Z,100549.72
2022-12-13T09:36:12.971Z,100555.63
2022-12-13T09:38:40.938Z,100561.50
2022-12-13T09:41:19.845Z,100561.44
2022-12-13T09:43:51.552Z,100568.19
2022-12-13T09:46:24.597Z,100561.09
2022-12-13T09:49:01.581Z,100563.69
2022-12-13T09:51:43.383Z,100564.41
2022-12-13T09:54:18.057Z,100561.69
2022-12-13T09:56:50.575Z,100559.91
2022-12-13T09:59:19.340Z,100560.44
2022-12-13T10:01:47.723Z,100549.47
2022-12-13T10:04:19.885Z,100551.88
2022-12-13T10:06:47.552Z,100549.09
2022-12-13T10:09:15.432Z,100536.03
2022-12-13T10:11:50.816Z,100529.97
2022-12-13T10:14:23.932Z,100522.94
2022-12-13T10:16:53.444Z,100522.88
2022-12-13T10:19:28.420Z,100522.56
2022-12-13T10:22:02.131Z,100513.81
2022-12-13T10:24:37.330Z,100504.41
2022-12-13T10:27:13.406Z,100507.00
2022-12-13T10:29:59.923Z,100510.44
2022-12-13T10:32:28.015Z,100504.44
2022-12-13T10:34:57.155Z,100508.56
2022-12-13T10:37:30.335Z,100505.81
2022-12-13T10:39:58.752Z,100500.56
2022-12-13T10:42:32.137Z,100487.56
2022-12-13T10:45:15.623Z,100497.69
2022-12-13T10:47:45.249Z,100485.31
2022-12-13T10:50:25.391Z,100482.78
2022-12-13T10:52:52.947Z,100485.13
2022-12-13T10:55:24.194Z,100479.75
2022-12-13T10:57:52.240Z,100488.28
2022-12-13T11:00:31.277Z,100485.53
2022-12-13T11:02:58.993Z,100491.28
2022-12-13T11:05:29.456Z,100496.41
2022-12-13T11:08:00.879Z,100492.25
2022-12-13T11:10:29.563Z,100497.91
2022-12-13T11:12:58.908Z,100490.06
2022-12-13T11:15:26.596Z,100485.69
2022-12-13T11:17:54.606Z,100487.31
2022-12-13T11:20:23.880Z,100483.53
2022-12-13T11:23:01.060Z,100480.88
2022-12-13T11:25:32.548Z,100484.25
2022-12-13T11:28:26.831Z,100469.75
2022-12-13T11:30:58.035Z,100467.06
2022-12-13T11:33:31.069Z,100469.50
2022-12-13T11:36:04.260Z,100462.38
2022-12-13T11:38:33.814Z,100453.69
2022-12-13T11:41:04.079Z,100439.25
2022-12-13T11:43:33.784Z,100443.81
2022-12-13T11:46:01.647Z,100449.34
2022-12-13T11:48:32.093Z,100449.06
2022-12-13T11:50:59.592Z,100439.28
2022-12-13T11:53:28.366Z,100429.97
2022-12-13T11:55:58.895Z,100423.69
2022-12-13T12:01:16.760Z,100420.00
2022-12-13T12:03:46.885Z,100425.00
2022-12-13T12:06:17.549Z,100418.81
2022-12-13T12:08:47.062Z,100411.78
2022-12-13T12:11:19.952Z,100414.22
2022-12-13T12:13:51.314Z,100406.59
2022-12-13T12:16:22.328Z,100411.53
2022-12-13T12:18:50.875Z,100407.19
2022-12-13T12:21:21.737Z,100412.38
2022-12-13T12:23:53.327Z,100421.09
2022-12-13T12:26:23.037Z,100409.81
2022-12-13T12:28:56.462Z,100408.75
2022-12-13T12:31:30.628Z,100407.34
2022-12-13T12:34:00.948Z,100408.81
2022-12-13T12:36:32.091Z,100410.34
2022-12-13T12:39:19.886Z,100410.25
2022-12-13T12:41:52.107Z,100395.28
2022-12-13T12:44:22.553Z,100396.13
2022-12-13T12:47:18.891Z,100403.50
2022-12-13T12:50:03.250Z,100399.88
2022-12-13T12:52:38.276Z,100399.38
2022-12-13T12:55:13.185Z,100407.94
2022-12-13T12:57:52.829Z,100402.16
2022-12-13T13:00:22.635Z,100396.94
2022-12-13T13:02:53.510Z,100397.09
2022-12-13T13:05:26.745Z,100394.38
2022-12-13T13:07:56.181Z,100392.69
2022-12-13T13:10:26.749Z,100386.88
2022-12-13T13:13:12.947Z,100386.94
2022-12-13T13:16:04.870Z,100390.69
2022-12-13T13:18:45.572Z,100389.31
2022-12-13T13:21:43.479Z,100390.09
2022-12-13T13:24:18.302Z,100389.06
2022-12-13T13:26:46.396Z,100380.69
2022-12-13T13:29:27.436Z,100378.69
2022-12-13T13:32:01.158Z,100391.91
2022-12-13T13:34:30.205Z,100398.72
2022-12-13T13:36:57.851Z,100386.38
2022-12-13T13:39:46.190Z,100405.41
2022-12-13T13:42:18.753Z,100393.84
2022-12-13T13:45:22.358Z,100393.09
2022-12-13T13:47:54.015Z,100395.25
2022-12-13T13:50:34.183Z,100399.31
2022-12-13T13:53:05.107Z,100400.34
2022-12-13T13:55:40.573Z,100395.41
2022-12-13T13:58:22.448Z,100382.19
2022-12-13T14:00:57.094Z,100389.59
2022-12-13T14:03:50.893Z,100383.44
2022-12-13T14:06:36.876Z,100385.09
2022-12-13T14:09:40.131Z,100375.13
2022-12-13T14:12:53.087Z,100371.00
2022-12-13T14:16:03.674Z,100373.97
2022-12-13T14:18:59.048Z,100360.78
2022-12-13T14:21:36.852Z,100363.59
2022-12-13T14:24:21.688Z,100368.75
2022-12-13T14:27:00.542Z,100366.59
2022-12-13T14:29:31.505Z,100365.63
2022-12-13T14:31:59.436Z,100363.16
2022-12-13T14:34:30.145Z,100353.81
2022-12-13T14:36:59.711Z,100351.41
2022-12-13T14:39:29.581Z,100352.50
2022-12-13T14:41:58.865Z,100355.22
2022-12-13T14:44:28.370Z,100346.75
2022-12-13T14:46:57.495Z,100343.44
2022-12-13T14:49:26.389Z,100341.88
2022-12-13T14:52:01.339Z,100333.56
2022-12-13T14:54:32.363Z,100341.81
2022-12-13T14:57:02.744Z,100334.56
2022-12-13T14:59:31.010Z,100331.22
2022-12-13T15:02:02.501Z,100327.78
2022-12-13T15:04:31.841Z,100327.94
2022-12-13T15:07:04.557Z,100323.63
2022-12-13T15:09:32.414Z,100321.31
2022-12-13T15:12:23.380Z,100318.03
2022-12-13T15:14:51.294Z,100318.22
2022-12-13T15:17:27.899Z,100319.25
2022-12-13T15:19:55.878Z,100319.25
2022-12-13T15:22:29.136Z,100315.22
2022-12-13T15:24:58.325Z,100306.72
2022-12-13T15:27:26.358Z,100317.13
2022-12-13T15:29:54.684Z,100312.09
2022-12-13T15:32:23.768Z,100314.66
2022-12-13T15:34:52.351Z,100308.34
2022-12-13T15:37:29.467Z,100318.41
2022-12-13T15:40:00.788Z,100322.47
2022-12-13T15:42:32.286Z,100316.13
2022-12-13T15:45:02.229Z,100312.56
2022-12-13T15:47:30.032Z,100321.09
2022-12-13T15:49:59.097Z,100320.03
2022-12-13T15:52:34.246Z,100314.88
2022-12-13T15:55:03.993Z,100320.25
2022-12-13T15:57:33.396Z,100316.78
2022-12-13T16:00:16.935Z,100315.97
2022-12-13T16:02:52.309Z,100311.09
2022-12-13T16:05:26.821Z,100308.41
2022-12-13T16:07:56.779Z,100305.00
2022-12-13T16:10:24.981Z,100299.78
2022-12-13T16:12:58.842Z,100299.66
2022-12-13T16:15:28.992Z,100302.34
2022-12-13T16:18:07.507Z,100294.75
2022-12-13T16:20:35.389Z,100305.06
2022-12-13T16:23:08.973Z,100298.25
2022-12-13T16:25:37.251Z,100298.44
2022-12-13T16:28:05.584Z,100297.03
2022-12-13T16:30:56.020Z,100284.97
2022-12-13T16:33:27.470Z,100281.63
2022-12-13T16:35:57.475Z,100280.91
2022-12-13T16:38:27.474Z,100288.66
2022-12-13T16:40:56.834Z,100290.41
2022-12-13T16:43:32.823Z,100286.91
2022-12-13T16:46:02.561Z,100299.47
2022-12-13T16:48:50.027Z,100304.66
2022-12-13T16:51:18.068Z,100313.75
2022-12-13T16:53:47.123Z,100309.44
2022-12-13T16:56:17.064Z,100300.16
2022-12-13T16:58:49.566Z,100305.25
2022-12-13T17:01:19.228Z,100306.84
2022-12-13T17:03:46.803Z,100304.06
2022-12-13T17:06:14.269Z,100306.22
2022-12-13T17:08:41.777Z,100304.44
2022-12-13T17:11:16.152Z,100299.38
2022-12-13T17:13:47.392Z,100295.97
2022-12-13T17:16:15.274Z,100292.75
2022-12-13T17:18:43.140Z,100295.84
2022-12-13T17:21:11.494Z,100296.44
2022-12-13T17:23:39.205Z,100289.25
2022-12-13T17:26:07.897Z,100282.25
2022-12-13T17:28:36.951Z,100285.56
2022-12-13T17:31:08.598Z,100281.66
2022-12-13T17:33:36.873Z,100283.78
2022-12-13T17:36:05.326Z,100280.69
2022-12-13T17:38:33.250Z,100290.72
2022-12-13T17:41:00.955Z,100285.50
2022-12-13T17:43:35.675Z,100281.16
2022-12-13T17:46:06.317Z,100280.25
2022-12-13T17:48:40.476Z,100274.16
2022-12-13T17:51:09.403Z,100272.66
2022-12-13T17:53:37.653Z,100266.56
2022-12-13T17:56:07.632Z,100271.66
2022-12-13T17:58:35.968Z,100270.00
2022-12-13T18:01:12.981Z,100255.53
2022-12-13T18:03:41.152Z,100252.28
2022-12-13T18:06:09.196Z,100260.56
2022-12-13T18:08:38.807Z,100256.63
2022-12-13T18:13:55.843Z,100236.47
2022-12-13T18:16:33.991Z,100259.81
2022-12-13T18:19:03.987Z,100262.50
2022-12-13T18:21:31.696Z,100262.44
2022-12-13T18:24:00.033Z,100258.09
2022-12-13T18:26:27.488Z,100255.50
2022-12-13T18:28:54.967Z,100251.22
2022-12-13T18:31:24.046Z,100246.03
2022-12-13T18:33:54.459Z,100254.63
2022-12-13T18:36:22.539Z,100242.69
2022-12-13T18:38:50.065Z,100249.31
2022-12-13T18:41:18.366Z,100241.66
2022-12-13T18:43:46.137Z,100240.97
2022-12-13T18:46:14.763Z,100247.41
2022-12-13T18:48:42.744Z,100249.19
2022-12-13T18:51:11.772Z,100238.88
2022-12-13T18:53:40.072Z,100247.53
2022-12-13T18:56:17.486Z,100236.16
2022-12-13T18:58:46.558Z,100235.47
2022-12-13T19:01:15.560Z,100235.41
2022-12-13T19:03:44.627Z,100243.09
2022-12-13T19:06:17.640Z,100236.28
2022-12-13T19:08:48.150Z,100237.16
2022-12-13T19:11:15.822Z,100235.34
2022-12-13T19:13:43.468Z,100236.09
2022-12-13T19:16:13.230Z,100229.94
2022-12-13T19:18:40.977Z,100217.59
2022-12-13T19:21:10.077Z,100217.25
2022-12-13T19:23:40.760Z,100207.63
2022-12-13T19:26:09.281Z,100205.25
2022-12-13T19:28:38.019Z,100213.09
2022-12-13T19:31:06.499Z,100210.44
2022-12-13T19:33:34.824Z,100215.69
2022-12-13T19:36:03.696Z,100212.91
2022-12-13T19:38:31.361Z,100209.34
2022-12-13T19:41:01.078Z,100206.31
2022-12-13T19:43:28.838Z,100200.75
2022-12-13T19:45:56.698Z,100200.50
2022-12-13T19:48:24.132Z,100197.31
2022-12-13T19:50:51.668Z,100198.13
2022-12-13T19:53:19.139Z,100195.31
2022-12-13T19:55:48.407Z,100192.53
2022-12-13T19:58:17.673Z,100183.53
2022-12-13T20:00:45.436Z,100190.31
2022-12-13T20:03:13.213Z,100179.94
2022-12-13T20:05:45.483Z,100178.19
2022-12-13T20:08:13.523Z,100175.81
2022-12-13T20:10:41.468Z,100168.19
2022-12-13T20:13:09.837Z,100175.94
2022-12-13T20:15:38.820Z,100181.00
2022-12-13T20:18:06.544Z,100166.53
2022-12-13T20:21:02.483Z,100168.00
2022-12-13T20:23:21.615Z,100169.84
2022-12-13T20:25:49.056Z,100168.25
2022-12-13T20:28:16.670Z,100156.38
2022-12-13T20:30:45.487Z,100160.56
2022-12-13T20:33:14.596Z,100155.75
2022-12-13T20:36:15.192Z,100156.38
2022-12-13T20:38:34.372Z,100144.28
2022-12-13T20:41:02.265Z,100139.47
2022-12-13T20:43:30.638Z,100144.19
2022-12-13T20:46:04.637Z,100145.75
2022-12-13T20:48:32.405Z,100145.69
2022-12-13T20:51:00.847Z,100155.09
2022-12-13T20:53:28.982Z,100148.94
2022-12-13T20:55:58.076Z,100146.97
2022-12-13T20:58:26.071Z,100147.03
2022-12-13T21:00:54.068Z,100140.38
2022-12-13T21:03:23.233Z,100139.25
2022-12-13T21:05:51.012Z,100133.34
2022-12-13T21:08:36.115Z,100117.78
2022-12-13T21:11:24.323Z,100109.59
2022-12-13T21:13:52.147Z,100110.38
2022-12-13T21:16:20.258Z,100113.38
2022-12-13T21:18:49.446Z,100119.81
2022-12-13T21:21:17.141Z,100126.69
2022-12-13T21:23:44.829Z,100109.63
2022-12-13T21:26:12.307Z,100102.81
2022-12-13T21:28:40.462Z,100089.25
2022-12-13T21:31:08.961Z,100089.56
2022-12-13T21:33:37.156Z,100086.97
2022-12-13T21:36:14.329Z,100093.75
2022-12-13T21:38:41.958Z,100086.84
2022-12-13T21:41:09.645Z,100085.75
2022-12-13T21:43:40.605Z,100084.13
2022-12-13T21:46:10.025Z,100084.91
2022-12-13T21:48:38.734Z,100075.94
2022-12-13T21:51:07.733Z,100085.13
2022-12-13T21:53:36.768Z,100078.19
2022-12-13T21:56:34.871Z,100069.66
2022-12-13T21:59:17.716Z,100065.56
2022-12-13T22:02:03.673Z,100070.50
2022-12-13T22:04:31.336Z,100052.69
2022-12-13T22:06:59.011Z,100062.34
2022-12-13T22:09:28.068Z,100050.91
2022-12-13T22:11:55.871Z,100053.75
2022-12-13T22:14:23.654Z,100038.69
2022-12-13T22:16:51.708Z,100044.41
2022-12-13T22:19:19.521Z,100033.66
2022-12-13T22:21:47.028Z,100034.34
2022-12-13T22:24:14.628Z,100040.03
2022-12-13T22:26:43.512Z,100044.03
2022-12-13T22:29:12.020Z,100041.00
2022-12-13T22:31:39.891Z,100043.28
2022-12-13T22:34:07.928Z,100048.63
2022-12-13T22:36:35.671Z,100042.28
2022-12-13T22:39:03.487Z,100043.50
2022-12-13T22:41:31.244Z,100040.91
2022-12-13T22:44:00.972Z,100034.13
2022-12-13T22:46:29.578Z,100041.88
2022-12-13T22:48:57.626Z,100027.00
2022-12-13T22:51:25.276Z,100032.41
2022-12-13T22:53:52.980Z,100025.38
2022-12-13T22:56:22.163Z,100034.38
2022-12-13T22:58:55.049Z,100029.94
2022-12-13T23:01:24.939Z,100030.00
2022-12-13T23:03:52.536Z,100021.47
2022-12-13T23:06:20.621Z,100030.84
2022-12-13T23:08:50.657Z,100018.38
2022-12-13T23:11:35.954Z,100021.63
2022-12-13T23:14:06.430Z,100008.59
2022-12-13T23:16:36.153Z,100011.97
2022-12-13T23:19:39.083Z,100019.75
2022-12-13T23:21:53.613Z,100001.13
2022-12-13T23:24:21.436Z,100005.06
2022-12-13T23:26:49.381Z,100006.00
2022-12-13T23:29:16.839Z,99994.38
2022-12-13T23:31:48.478Z,99995.97
2022-12-13T23:34:16.556Z,99996.88
2022-12-13T23:36:44.039Z,99986.72
2022-12-13T23:39:11.957Z,99996.03
2022-12-13T23:41:39.540Z,99978.56
2022-12-13T23:44:07.092Z,99988.59
2022-12-13T23:46:35.366Z,99981.63
2022-12-13T23:49:05.625Z,99982.66
2022-12-13T23:51:34.380Z,99981.56
2022-12-13T23:54:02.224Z,99981.66
2022-12-13T23:56:30.314Z,99985.03
2022-12-13T23:58:58.257Z,99984.09
